sensor_id;sensor_type;location;lat;lon;timestamp;P1;durP1;ratioP1;P2;durP2;ratioP2
31347;SDS011;21711;49.708;18.568;2023-01-30T00:00:12;32.37;;;13.90;;
31347;SDS011;21711;49.708;18.568;2023-01-30T00:02:40;37.53;;;13.87;;
31347;SDS011;21711;49.708;18.568;2023-01-30T00:05:07;33.97;;;12.83;;
31347;SDS011;21711;49.708;18.568;2023-01-30T00:07:35;34.07;;;13.10;;
31347;SDS011;21711;49.708;18.568;2023-01-30T00:10:02;27.83;;;10.63;;
31347;SDS011;21711;49.708;18.568;2023-01-30T00:12:30;25.17;;;8.47;;
31347;SDS011;21711;49.708;18.568;2023-01-30T00:14:57;26.30;;;8.90;;
31347;SDS011;21711;49.708;18.568;2023-01-30T00:17:24;24.73;;;9.10;;
31347;SDS011;21711;49.708;18.568;2023-01-30T00:19:52;22.57;;;8.57;;
31347;SDS011;21711;49.708;18.568;2023-01-30T00:22:19;26.43;;;9.77;;
31347;SDS011;21711;49.708;18.568;2023-01-30T00:24:46;25.83;;;9.53;;
31347;SDS011;21711;49.708;18.568;2023-01-30T00:27:14;25.23;;;10.13;;
31347;SDS011;21711;49.708;18.568;2023-01-30T00:29:41;29.83;;;9.87;;
31347;SDS011;21711;49.708;18.568;2023-01-30T00:32:19;26.60;;;10.03;;
31347;SDS011;21711;49.708;18.568;2023-01-30T00:34:46;22.93;;;9.10;;
31347;SDS011;21711;49.708;18.568;2023-01-30T00:37:14;27.80;;;9.17;;
31347;SDS011;21711;49.708;18.568;2023-01-30T00:39:41;19.00;;;7.70;;
31347;SDS011;21711;49.708;18.568;2023-01-30T00:42:08;23.40;;;8.17;;
31347;SDS011;21711;49.708;18.568;2023-01-30T00:44:54;22.03;;;7.97;;
31347;SDS011;21711;49.708;18.568;2023-01-30T00:47:41;22.43;;;7.77;;
31347;SDS011;21711;49.708;18.568;2023-01-30T00:50:09;22.53;;;8.43;;
31347;SDS011;21711;49.708;18.568;2023-01-30T00:52:36;23.97;;;7.57;;
31347;SDS011;21711;49.708;18.568;2023-01-30T00:55:04;23.90;;;8.33;;
31347;SDS011;21711;49.708;18.568;2023-01-30T00:57:32;23.63;;;8.37;;
31347;SDS011;21711;49.708;18.568;2023-01-30T00:59:59;20.57;;;7.70;;
31347;SDS011;21711;49.708;18.568;2023-01-30T01:02:26;28.27;;;10.07;;
31347;SDS011;21711;49.708;18.568;2023-01-30T01:04:54;23.20;;;7.83;;
31347;SDS011;21711;49.708;18.568;2023-01-30T01:07:21;24.57;;;9.00;;
31347;SDS011;21711;49.708;18.568;2023-01-30T01:09:48;22.43;;;8.63;;
31347;SDS011;21711;49.708;18.568;2023-01-30T01:12:16;19.77;;;7.73;;
31347;SDS011;21711;49.708;18.568;2023-01-30T01:14:43;22.57;;;8.83;;
31347;SDS011;21711;49.708;18.568;2023-01-30T01:17:10;27.33;;;10.90;;
31347;SDS011;21711;49.708;18.568;2023-01-30T01:19:37;31.67;;;11.03;;
31347;SDS011;21711;49.708;18.568;2023-01-30T01:22:05;28.27;;;10.83;;
31347;SDS011;21711;49.708;18.568;2023-01-30T01:24:32;30.97;;;11.27;;
31347;SDS011;21711;49.708;18.568;2023-01-30T01:26:59;26.90;;;9.40;;
31347;SDS011;21711;49.708;18.568;2023-01-30T01:29:30;47.70;;;16.33;;
31347;SDS011;21711;49.708;18.568;2023-01-30T01:32:00;31.37;;;11.40;;
31347;SDS011;21711;49.708;18.568;2023-01-30T01:34:27;30.25;;;11.88;;
31347;SDS011;21711;49.708;18.568;2023-01-30T01:36:55;29.03;;;10.53;;
31347;SDS011;21711;49.708;18.568;2023-01-30T01:39:22;25.30;;;10.40;;
31347;SDS011;21711;49.708;18.568;2023-01-30T01:41:57;23.47;;;10.17;;
31347;SDS011;21711;49.708;18.568;2023-01-30T01:44:24;34.27;;;10.23;;
31347;SDS011;21711;49.708;18.568;2023-01-30T01:46:55;26.87;;;10.27;;
31347;SDS011;21711;49.708;18.568;2023-01-30T01:52:16;32.77;;;9.97;;
31347;SDS011;21711;49.708;18.568;2023-01-30T01:54:45;29.30;;;10.20;;
31347;SDS011;21711;49.708;18.568;2023-01-30T01:57:36;26.63;;;9.30;;
31347;SDS011;21711;49.708;18.568;2023-01-30T02:00:15;28.40;;;9.67;;
31347;SDS011;21711;49.708;18.568;2023-01-30T02:02:56;29.47;;;9.60;;
31347;SDS011;21711;49.708;18.568;2023-01-30T02:05:34;28.30;;;9.93;;
31347;SDS011;21711;49.708;18.568;2023-01-30T02:08:10;30.83;;;9.53;;
31347;SDS011;21711;49.708;18.568;2023-01-30T02:14:10;25.05;;;7.88;;
31347;SDS011;21711;49.708;18.568;2023-01-30T02:16:40;18.33;;;7.53;;
31347;SDS011;21711;49.708;18.568;2023-01-30T02:30:50;24.73;;;9.00;;
31347;SDS011;21711;49.708;18.568;2023-01-30T02:39:37;21.03;;;8.77;;
31347;SDS011;21711;49.708;18.568;2023-01-30T02:42:37;19.43;;;7.33;;
31347;SDS011;21711;49.708;18.568;2023-01-30T02:45:35;18.50;;;7.33;;
31347;SDS011;21711;49.708;18.568;2023-01-30T02:48:20;23.60;;;8.00;;
31347;SDS011;21711;49.708;18.568;2023-01-30T02:51:06;24.93;;;9.50;;
31347;SDS011;21711;49.708;18.568;2023-01-30T02:53:46;19.40;;;7.17;;
31347;SDS011;21711;49.708;18.568;2023-01-30T02:56:17;20.60;;;7.47;;
31347;SDS011;21711;49.708;18.568;2023-01-30T02:58:50;22.87;;;7.70;;
31347;SDS011;21711;49.708;18.568;2023-01-30T03:07:45;15.13;;;5.73;;
31347;SDS011;21711;49.708;18.568;2023-01-30T03:13:19;18.30;;;6.40;;
31347;SDS011;21711;49.708;18.568;2023-01-30T03:16:09;17.60;;;6.50;;
31347;SDS011;21711;49.708;18.568;2023-01-30T03:18:46;15.53;;;5.43;;
31347;SDS011;21711;49.708;18.568;2023-01-30T03:21:15;14.50;;;6.20;;
31347;SDS011;21711;49.708;18.568;2023-01-30T03:23:43;15.57;;;6.10;;
31347;SDS011;21711;49.708;18.568;2023-01-30T03:26:19;15.33;;;5.73;;
31347;SDS011;21711;49.708;18.568;2023-01-30T03:28:51;14.73;;;6.43;;
31347;SDS011;21711;49.708;18.568;2023-01-30T03:31:19;18.57;;;6.93;;
31347;SDS011;21711;49.708;18.568;2023-01-30T03:33:46;18.33;;;5.73;;
31347;SDS011;21711;49.708;18.568;2023-01-30T03:36:14;14.93;;;5.33;;
31347;SDS011;21711;49.708;18.568;2023-01-30T03:38:41;11.93;;;4.80;;
31347;SDS011;21711;49.708;18.568;2023-01-30T03:41:09;11.23;;;4.40;;
31347;SDS011;21711;49.708;18.568;2023-01-30T03:43:37;10.70;;;3.97;;
31347;SDS011;21711;49.708;18.568;2023-01-30T03:46:04;14.43;;;5.10;;
31347;SDS011;21711;49.708;18.568;2023-01-30T03:48:32;10.50;;;4.17;;
31347;SDS011;21711;49.708;18.568;2023-01-30T03:50:59;16.23;;;5.20;;
31347;SDS011;21711;49.708;18.568;2023-01-30T03:53:27;14.23;;;4.40;;
31347;SDS011;21711;49.708;18.568;2023-01-30T03:55:55;10.83;;;4.43;;
31347;SDS011;21711;49.708;18.568;2023-01-30T03:58:28;9.50;;;3.60;;
31347;SDS011;21711;49.708;18.568;2023-01-30T04:00:57;7.23;;;3.40;;
31347;SDS011;21711;49.708;18.568;2023-01-30T04:03:25;11.50;;;4.93;;
31347;SDS011;21711;49.708;18.568;2023-01-30T04:05:56;8.33;;;3.43;;
31347;SDS011;21711;49.708;18.568;2023-01-30T04:08:24;12.23;;;4.17;;
31347;SDS011;21711;49.708;18.568;2023-01-30T04:10:51;8.90;;;4.60;;
31347;SDS011;21711;49.708;18.568;2023-01-30T04:13:19;6.47;;;3.77;;
31347;SDS011;21711;49.708;18.568;2023-01-30T04:15:46;8.97;;;3.67;;
31347;SDS011;21711;49.708;18.568;2023-01-30T04:18:49;7.20;;;3.03;;
31347;SDS011;21711;49.708;18.568;2023-01-30T04:21:19;10.48;;;3.47;;
31347;SDS011;21711;49.708;18.568;2023-01-30T04:23:47;9.70;;;4.47;;
31347;SDS011;21711;49.708;18.568;2023-01-30T04:26:14;10.33;;;4.53;;
31347;SDS011;21711;49.708;18.568;2023-01-30T04:28:42;10.33;;;4.37;;
31347;SDS011;21711;49.708;18.568;2023-01-30T04:31:11;8.23;;;3.67;;
31347;SDS011;21711;49.708;18.568;2023-01-30T04:33:42;14.53;;;4.87;;
31347;SDS011;21711;49.708;18.568;2023-01-30T04:36:11;8.37;;;4.00;;
31347;SDS011;21711;49.708;18.568;2023-01-30T04:38:39;12.43;;;4.20;;
31347;SDS011;21711;49.708;18.568;2023-01-30T04:41:06;8.23;;;4.00;;
31347;SDS011;21711;49.708;18.568;2023-01-30T04:43:38;8.53;;;4.23;;
31347;SDS011;21711;49.708;18.568;2023-01-30T04:46:11;8.67;;;3.67;;
31347;SDS011;21711;49.708;18.568;2023-01-30T04:48:39;8.23;;;4.27;;
31347;SDS011;21711;49.708;18.568;2023-01-30T04:51:08;10.73;;;4.37;;
31347;SDS011;21711;49.708;18.568;2023-01-30T04:53:36;10.93;;;4.60;;
31347;SDS011;21711;49.708;18.568;2023-01-30T04:56:06;12.70;;;4.63;;
31347;SDS011;21711;49.708;18.568;2023-01-30T04:58:34;10.20;;;4.10;;
31347;SDS011;21711;49.708;18.568;2023-01-30T05:01:21;12.10;;;4.50;;
31347;SDS011;21711;49.708;18.568;2023-01-30T05:03:52;7.60;;;3.90;;
31347;SDS011;21711;49.708;18.568;2023-01-30T05:08:48;8.27;;;3.50;;
31347;SDS011;21711;49.708;18.568;2023-01-30T05:11:21;8.27;;;4.07;;
31347;SDS011;21711;49.708;18.568;2023-01-30T05:13:51;8.77;;;3.50;;
31347;SDS011;21711;49.708;18.568;2023-01-30T05:16:19;8.87;;;4.00;;
31347;SDS011;21711;49.708;18.568;2023-01-30T05:18:47;9.23;;;4.40;;
31347;SDS011;21711;49.708;18.568;2023-01-30T05:21:19;9.53;;;4.47;;
31347;SDS011;21711;49.708;18.568;2023-01-30T05:23:51;8.77;;;4.10;;
31347;SDS011;21711;49.708;18.568;2023-01-30T05:26:19;9.03;;;3.93;;
31347;SDS011;21711;49.708;18.568;2023-01-30T05:28:54;9.63;;;4.30;;
31347;SDS011;21711;49.708;18.568;2023-01-30T05:31:23;10.37;;;4.43;;
31347;SDS011;21711;49.708;18.568;2023-01-30T05:33:51;10.30;;;3.90;;
31347;SDS011;21711;49.708;18.568;2023-01-30T05:36:20;12.23;;;4.50;;
31347;SDS011;21711;49.708;18.568;2023-01-30T05:38:48;12.10;;;4.67;;
31347;SDS011;21711;49.708;18.568;2023-01-30T05:41:16;11.23;;;4.67;;
31347;SDS011;21711;49.708;18.568;2023-01-30T05:43:43;7.20;;;3.67;;
31347;SDS011;21711;49.708;18.568;2023-01-30T05:46:15;9.47;;;3.90;;
31347;SDS011;21711;49.708;18.568;2023-01-30T05:48:43;10.90;;;4.50;;
31347;SDS011;21711;49.708;18.568;2023-01-30T05:51:14;9.63;;;4.73;;
31347;SDS011;21711;49.708;18.568;2023-01-30T05:53:44;8.60;;;3.70;;
31347;SDS011;21711;49.708;18.568;2023-01-30T05:56:12;9.63;;;3.97;;
31347;SDS011;21711;49.708;18.568;2023-01-30T05:58:40;9.03;;;4.20;;
31347;SDS011;21711;49.708;18.568;2023-01-30T06:01:10;9.13;;;4.30;;
31347;SDS011;21711;49.708;18.568;2023-01-30T06:03:38;7.90;;;4.43;;
31347;SDS011;21711;49.708;18.568;2023-01-30T06:06:05;9.17;;;3.97;;
31347;SDS011;21711;49.708;18.568;2023-01-30T06:08:33;8.80;;;4.23;;
31347;SDS011;21711;49.708;18.568;2023-01-30T06:11:04;7.80;;;3.53;;
31347;SDS011;21711;49.708;18.568;2023-01-30T06:13:35;11.40;;;4.53;;
31347;SDS011;21711;49.708;18.568;2023-01-30T06:16:04;9.07;;;3.80;;
31347;SDS011;21711;49.708;18.568;2023-01-30T06:18:37;11.70;;;4.27;;
31347;SDS011;21711;49.708;18.568;2023-01-30T06:21:05;10.30;;;4.53;;
31347;SDS011;21711;49.708;18.568;2023-01-30T06:23:33;9.57;;;4.27;;
31347;SDS011;21711;49.708;18.568;2023-01-30T06:26:01;7.73;;;3.47;;
31347;SDS011;21711;49.708;18.568;2023-01-30T06:28:33;9.37;;;4.23;;
31347;SDS011;21711;49.708;18.568;2023-01-30T06:31:01;7.53;;;3.93;;
31347;SDS011;21711;49.708;18.568;2023-01-30T06:33:31;6.63;;;3.40;;
31347;SDS011;21711;49.708;18.568;2023-01-30T06:35:58;11.17;;;4.10;;
31347;SDS011;21711;49.708;18.568;2023-01-30T06:38:25;9.30;;;4.37;;
31347;SDS011;21711;49.708;18.568;2023-01-30T06:40:53;10.77;;;4.50;;
31347;SDS011;21711;49.708;18.568;2023-01-30T06:43:20;8.23;;;3.80;;
31347;SDS011;21711;49.708;18.568;2023-01-30T06:45:47;7.63;;;3.77;;
31347;SDS011;21711;49.708;18.568;2023-01-30T06:48:14;11.03;;;4.67;;
31347;SDS011;21711;49.708;18.568;2023-01-30T06:50:44;10.53;;;4.70;;
31347;SDS011;21711;49.708;18.568;2023-01-30T06:55:40;7.03;;;3.10;;
31347;SDS011;21711;49.708;18.568;2023-01-30T06:58:08;9.50;;;3.70;;
31347;SDS011;21711;49.708;18.568;2023-01-30T07:00:39;11.13;;;4.55;;
31347;SDS011;21711;49.708;18.568;2023-01-30T07:03:11;9.80;;;3.95;;
31347;SDS011;21711;49.708;18.568;2023-01-30T07:05:41;7.10;;;4.00;;
31347;SDS011;21711;49.708;18.568;2023-01-30T07:08:10;10.33;;;4.67;;
31347;SDS011;21711;49.708;18.568;2023-01-30T07:10:39;9.80;;;4.00;;
31347;SDS011;21711;49.708;18.568;2023-01-30T07:13:07;9.77;;;4.43;;
31347;SDS011;21711;49.708;18.568;2023-01-30T07:15:34;8.87;;;4.20;;
31347;SDS011;21711;49.708;18.568;2023-01-30T07:18:02;11.17;;;4.70;;
31347;SDS011;21711;49.708;18.568;2023-01-30T07:20:30;11.13;;;4.57;;
31347;SDS011;21711;49.708;18.568;2023-01-30T07:22:58;9.80;;;4.27;;
31347;SDS011;21711;49.708;18.568;2023-01-30T07:25:26;10.10;;;4.20;;
31347;SDS011;21711;49.708;18.568;2023-01-30T07:27:55;8.60;;;4.17;;
31347;SDS011;21711;49.708;18.568;2023-01-30T07:30:27;13.38;;;5.35;;
31347;SDS011;21711;49.708;18.568;2023-01-30T07:32:57;10.27;;;4.00;;
31347;SDS011;21711;49.708;18.568;2023-01-30T07:35:26;11.93;;;4.80;;
31347;SDS011;21711;49.708;18.568;2023-01-30T07:40:24;5.90;;;2.80;;
31347;SDS011;21711;49.708;18.568;2023-01-30T07:42:54;7.22;;;3.95;;
31347;SDS011;21711;49.708;18.568;2023-01-30T07:45:23;7.30;;;3.57;;
31347;SDS011;21711;49.708;18.568;2023-01-30T07:47:54;9.45;;;4.05;;
31347;SDS011;21711;49.708;18.568;2023-01-30T07:50:21;9.03;;;4.33;;
31347;SDS011;21711;49.708;18.568;2023-01-30T07:52:48;9.37;;;4.30;;
31347;SDS011;21711;49.708;18.568;2023-01-30T07:55:16;10.90;;;4.70;;
31347;SDS011;21711;49.708;18.568;2023-01-30T07:57:43;9.83;;;4.37;;
31347;SDS011;21711;49.708;18.568;2023-01-30T08:00:11;10.40;;;4.53;;
31347;SDS011;21711;49.708;18.568;2023-01-30T08:02:39;10.43;;;4.57;;
31347;SDS011;21711;49.708;18.568;2023-01-30T08:05:06;8.47;;;3.90;;
31347;SDS011;21711;49.708;18.568;2023-01-30T08:07:34;9.40;;;4.53;;
31347;SDS011;21711;49.708;18.568;2023-01-30T08:10:02;9.13;;;4.83;;
31347;SDS011;21711;49.708;18.568;2023-01-30T08:12:30;11.40;;;4.77;;
31347;SDS011;21711;49.708;18.568;2023-01-30T08:14:57;9.00;;;4.27;;
31347;SDS011;21711;49.708;18.568;2023-01-30T08:17:24;11.03;;;5.23;;
31347;SDS011;21711;49.708;18.568;2023-01-30T08:19:52;12.73;;;5.17;;
31347;SDS011;21711;49.708;18.568;2023-01-30T08:22:19;11.93;;;5.13;;
31347;SDS011;21711;49.708;18.568;2023-01-30T08:24:47;11.07;;;4.33;;
31347;SDS011;21711;49.708;18.568;2023-01-30T08:27:15;9.17;;;4.53;;
31347;SDS011;21711;49.708;18.568;2023-01-30T08:29:43;12.27;;;4.63;;
31347;SDS011;21711;49.708;18.568;2023-01-30T08:32:10;8.83;;;4.20;;
31347;SDS011;21711;49.708;18.568;2023-01-30T08:34:40;11.03;;;5.50;;
31347;SDS011;21711;49.708;18.568;2023-01-30T08:37:07;11.33;;;4.87;;
31347;SDS011;21711;49.708;18.568;2023-01-30T08:39:34;10.40;;;5.20;;
31347;SDS011;21711;49.708;18.568;2023-01-30T08:42:02;10.20;;;5.40;;
31347;SDS011;21711;49.708;18.568;2023-01-30T08:44:30;12.80;;;5.57;;
31347;SDS011;21711;49.708;18.568;2023-01-30T08:46:59;10.60;;;3.77;;
31347;SDS011;21711;49.708;18.568;2023-01-30T08:49:27;9.83;;;4.33;;
31347;SDS011;21711;49.708;18.568;2023-01-30T08:51:54;8.70;;;4.43;;
31347;SDS011;21711;49.708;18.568;2023-01-30T08:54:21;9.97;;;4.43;;
31347;SDS011;21711;49.708;18.568;2023-01-30T08:56:48;12.43;;;5.30;;
31347;SDS011;21711;49.708;18.568;2023-01-30T08:59:16;15.63;;;5.70;;
31347;SDS011;21711;49.708;18.568;2023-01-30T09:01:43;11.97;;;4.83;;
31347;SDS011;21711;49.708;18.568;2023-01-30T09:04:10;11.40;;;5.27;;
31347;SDS011;21711;49.708;18.568;2023-01-30T09:06:37;11.20;;;5.00;;
31347;SDS011;21711;49.708;18.568;2023-01-30T09:09:05;8.20;;;4.70;;
31347;SDS011;21711;49.708;18.568;2023-01-30T09:11:32;9.98;;;4.55;;
31347;SDS011;21711;49.708;18.568;2023-01-30T09:14:00;9.15;;;5.10;;
31347;SDS011;21711;49.708;18.568;2023-01-30T09:16:27;8.27;;;4.65;;
31347;SDS011;21711;49.708;18.568;2023-01-30T09:18:55;11.60;;;5.47;;
31347;SDS011;21711;49.708;18.568;2023-01-30T09:21:22;10.65;;;5.28;;
31347;SDS011;21711;49.708;18.568;2023-01-30T09:23:49;12.63;;;5.82;;
31347;SDS011;21711;49.708;18.568;2023-01-30T09:26:17;10.02;;;5.20;;
31347;SDS011;21711;49.708;18.568;2023-01-30T09:28:44;10.63;;;6.07;;
31347;SDS011;21711;49.708;18.568;2023-01-30T09:31:11;10.52;;;5.53;;
31347;SDS011;21711;49.708;18.568;2023-01-30T09:33:39;12.68;;;5.13;;
31347;SDS011;21711;49.708;18.568;2023-01-30T09:36:06;10.57;;;4.85;;
31347;SDS011;21711;49.708;18.568;2023-01-30T09:38:34;10.98;;;5.55;;
31347;SDS011;21711;49.708;18.568;2023-01-30T09:41:47;10.05;;;5.20;;
31347;SDS011;21711;49.708;18.568;2023-01-30T09:53:34;9.40;;;5.07;;
31347;SDS011;21711;49.708;18.568;2023-01-30T09:56:36;12.27;;;5.63;;
31347;SDS011;21711;49.708;18.568;2023-01-30T09:59:04;10.73;;;4.90;;
31347;SDS011;21711;49.708;18.568;2023-01-30T10:04:36;9.80;;;5.47;;
31347;SDS011;21711;49.708;18.568;2023-01-30T10:07:30;11.32;;;4.72;;
31347;SDS011;21711;49.708;18.568;2023-01-30T10:10:03;9.40;;;4.43;;
31347;SDS011;21711;49.708;18.568;2023-01-30T10:18:53;11.27;;;5.40;;
31347;SDS011;21711;49.708;18.568;2023-01-30T10:24:13;9.17;;;5.00;;
31347;SDS011;21711;49.708;18.568;2023-01-30T10:27:17;12.30;;;5.77;;
31347;SDS011;21711;49.708;18.568;2023-01-30T10:29:55;12.90;;;5.83;;
31347;SDS011;21711;49.708;18.568;2023-01-30T10:32:40;12.37;;;5.70;;
31347;SDS011;21711;49.708;18.568;2023-01-30T10:35:18;14.97;;;6.33;;
31347;SDS011;21711;49.708;18.568;2023-01-30T10:43:44;12.13;;;5.27;;
31347;SDS011;21711;49.708;18.568;2023-01-30T10:49:52;11.27;;;5.17;;
31347;SDS011;21711;49.708;18.568;2023-01-30T10:52:29;11.37;;;4.80;;
31347;SDS011;21711;49.708;18.568;2023-01-30T11:00:25;15.50;;;5.33;;
31347;SDS011;21711;49.708;18.568;2023-01-30T11:03:19;12.57;;;5.67;;
31347;SDS011;21711;49.708;18.568;2023-01-30T11:06:12;9.63;;;4.43;;
31347;SDS011;21711;49.708;18.568;2023-01-30T11:08:51;10.43;;;4.90;;
31347;SDS011;21711;49.708;18.568;2023-01-30T11:11:25;8.87;;;4.87;;
31347;SDS011;21711;49.708;18.568;2023-01-30T11:14:21;11.98;;;5.57;;
31347;SDS011;21711;49.708;18.568;2023-01-30T11:16:49;9.73;;;4.90;;
31347;SDS011;21711;49.708;18.568;2023-01-30T11:21:59;14.10;;;5.80;;
31347;SDS011;21711;49.708;18.568;2023-01-30T11:24:36;16.90;;;5.95;;
31347;SDS011;21711;49.708;18.568;2023-01-30T11:27:27;21.93;;;7.93;;
31347;SDS011;21711;49.708;18.568;2023-01-30T11:30:10;59.90;;;16.97;;
31347;SDS011;21711;49.708;18.568;2023-01-30T11:32:45;26.87;;;11.63;;
31347;SDS011;21711;49.708;18.568;2023-01-30T11:35:32;10.80;;;4.67;;
31347;SDS011;21711;49.708;18.568;2023-01-30T11:38:19;11.47;;;5.03;;
31347;SDS011;21711;49.708;18.568;2023-01-30T11:43:49;10.30;;;4.80;;
31347;SDS011;21711;49.708;18.568;2023-01-30T11:46:17;8.40;;;4.43;;
31347;SDS011;21711;49.708;18.568;2023-01-30T11:48:50;10.80;;;4.87;;
31347;SDS011;21711;49.708;18.568;2023-01-30T11:51:45;39.10;;;19.90;;
31347;SDS011;21711;49.708;18.568;2023-01-30T11:54:18;10.67;;;5.53;;
31347;SDS011;21711;49.708;18.568;2023-01-30T11:57:00;8.00;;;3.73;;
31347;SDS011;21711;49.708;18.568;2023-01-30T11:59:31;12.73;;;7.33;;
31347;SDS011;21711;49.708;18.568;2023-01-30T12:05:00;9.52;;;4.40;;
31347;SDS011;21711;49.708;18.568;2023-01-30T12:08:10;8.53;;;3.97;;
31347;SDS011;21711;49.708;18.568;2023-01-30T12:10:46;8.97;;;4.67;;
31347;SDS011;21711;49.708;18.568;2023-01-30T12:15:50;8.32;;;3.88;;
31347;SDS011;21711;49.708;18.568;2023-01-30T12:25:01;11.50;;;4.47;;
31347;SDS011;21711;49.708;18.568;2023-01-30T12:28:01;9.40;;;4.53;;
31347;SDS011;21711;49.708;18.568;2023-01-30T12:31:03;8.32;;;3.78;;
31347;SDS011;21711;49.708;18.568;2023-01-30T12:33:39;10.85;;;5.47;;
31347;SDS011;21711;49.708;18.568;2023-01-30T13:01:13;8.97;;;4.27;;
31347;SDS011;21711;49.708;18.568;2023-01-30T13:07:41;8.30;;;4.40;;
31347;SDS011;21711;49.708;18.568;2023-01-30T13:19:13;10.87;;;5.50;;
31347;SDS011;21711;49.708;18.568;2023-01-30T13:25:29;12.57;;;4.07;;
31347;SDS011;21711;49.708;18.568;2023-01-30T13:28:00;9.43;;;4.03;;
31347;SDS011;21711;49.708;18.568;2023-01-30T13:30:45;11.00;;;4.40;;
31347;SDS011;21711;49.708;18.568;2023-01-30T13:33:18;8.70;;;4.18;;
31347;SDS011;21711;49.708;18.568;2023-01-30T13:41:50;10.20;;;4.60;;
31347;SDS011;21711;49.708;18.568;2023-01-30T13:44:26;8.20;;;4.03;;
31347;SDS011;21711;49.708;18.568;2023-01-30T13:46:58;9.17;;;4.23;;
31347;SDS011;21711;49.708;18.568;2023-01-30T13:52:32;11.07;;;4.57;;
31347;SDS011;21711;49.708;18.568;2023-01-30T13:55:37;9.97;;;4.27;;
31347;SDS011;21711;49.708;18.568;2023-01-30T13:58:18;10.87;;;4.97;;
31347;SDS011;21711;49.708;18.568;2023-01-30T14:01:10;11.17;;;4.43;;
31347;SDS011;21711;49.708;18.568;2023-01-30T14:03:39;10.57;;;4.77;;
31347;SDS011;21711;49.708;18.568;2023-01-30T14:09:00;7.03;;;3.60;;
31347;SDS011;21711;49.708;18.568;2023-01-30T14:11:47;8.23;;;3.83;;
31347;SDS011;21711;49.708;18.568;2023-01-30T14:17:14;9.52;;;3.53;;
31347;SDS011;21711;49.708;18.568;2023-01-30T14:22:47;9.77;;;4.80;;
31347;SDS011;21711;49.708;18.568;2023-01-30T14:32:57;8.23;;;4.30;;
31347;SDS011;21711;49.708;18.568;2023-01-30T14:35:27;11.43;;;5.50;;
31347;SDS011;21711;49.708;18.568;2023-01-30T14:40:33;12.27;;;5.63;;
31347;SDS011;21711;49.708;18.568;2023-01-30T14:45:52;8.70;;;4.82;;
31347;SDS011;21711;49.708;18.568;2023-01-30T14:49:04;7.27;;;3.80;;
31347;SDS011;21711;49.708;18.568;2023-01-30T14:51:52;9.93;;;4.80;;
31347;SDS011;21711;49.708;18.568;2023-01-30T14:54:23;8.45;;;3.95;;
31347;SDS011;21711;49.708;18.568;2023-01-30T14:57:15;7.15;;;4.03;;
31347;SDS011;21711;49.708;18.568;2023-01-30T14:59:48;8.60;;;4.30;;
31347;SDS011;21711;49.708;18.568;2023-01-30T15:02:37;10.27;;;4.27;;
31347;SDS011;21711;49.708;18.568;2023-01-30T15:05:11;6.60;;;3.90;;
31347;SDS011;21711;49.708;18.568;2023-01-30T15:07:48;9.27;;;4.70;;
31347;SDS011;21711;49.708;18.568;2023-01-30T15:16:42;8.60;;;4.13;;
31347;SDS011;21711;49.708;18.568;2023-01-30T15:28:50;8.95;;;4.13;;
31347;SDS011;21711;49.708;18.568;2023-01-30T15:31:31;8.90;;;4.17;;
31347;SDS011;21711;49.708;18.568;2023-01-30T15:33:59;9.50;;;3.83;;
31347;SDS011;21711;49.708;18.568;2023-01-30T15:36:32;8.80;;;4.18;;
31347;SDS011;21711;49.708;18.568;2023-01-30T15:39:05;7.63;;;4.20;;
31347;SDS011;21711;49.708;18.568;2023-01-30T15:41:46;8.80;;;4.53;;
31347;SDS011;21711;49.708;18.568;2023-01-30T15:50:07;7.30;;;3.60;;
31347;SDS011;21711;49.708;18.568;2023-01-30T15:55:16;7.00;;;2.70;;
31347;SDS011;21711;49.708;18.568;2023-01-30T15:57:50;6.03;;;2.63;;
31347;SDS011;21711;49.708;18.568;2023-01-30T16:00:43;6.63;;;2.90;;
31347;SDS011;21711;49.708;18.568;2023-01-30T16:03:15;4.47;;;2.27;;
31347;SDS011;21711;49.708;18.568;2023-01-30T16:05:49;4.85;;;2.45;;
31347;SDS011;21711;49.708;18.568;2023-01-30T16:08:31;5.73;;;2.97;;
31347;SDS011;21711;49.708;18.568;2023-01-30T16:11:00;6.80;;;2.90;;
31347;SDS011;21711;49.708;18.568;2023-01-30T16:13:28;7.33;;;3.07;;
31347;SDS011;21711;49.708;18.568;2023-01-30T16:21:17;6.10;;;2.75;;
31347;SDS011;21711;49.708;18.568;2023-01-30T16:23:54;4.80;;;2.65;;
31347;SDS011;21711;49.708;18.568;2023-01-30T16:26:22;7.32;;;2.42;;
31347;SDS011;21711;49.708;18.568;2023-01-30T16:28:49;4.77;;;2.60;;
31347;SDS011;21711;49.708;18.568;2023-01-30T16:31:24;7.28;;;3.13;;
31347;SDS011;21711;49.708;18.568;2023-01-30T16:33:56;5.88;;;3.08;;
31347;SDS011;21711;49.708;18.568;2023-01-30T16:38:51;8.23;;;3.50;;
31347;SDS011;21711;49.708;18.568;2023-01-30T16:41:27;4.82;;;2.78;;
31347;SDS011;21711;49.708;18.568;2023-01-30T16:44:22;6.27;;;2.90;;
31347;SDS011;21711;49.708;18.568;2023-01-30T16:46:58;8.23;;;3.00;;
31347;SDS011;21711;49.708;18.568;2023-01-30T16:49:51;5.55;;;2.90;;
31347;SDS011;21711;49.708;18.568;2023-01-30T16:57:38;5.23;;;2.63;;
31347;SDS011;21711;49.708;18.568;2023-01-30T17:00:20;5.50;;;3.07;;
31347;SDS011;21711;49.708;18.568;2023-01-30T17:03:06;6.53;;;3.50;;
31347;SDS011;21711;49.708;18.568;2023-01-30T17:05:51;7.77;;;3.10;;
31347;SDS011;21711;49.708;18.568;2023-01-30T17:08:44;7.13;;;3.90;;
31347;SDS011;21711;49.708;18.568;2023-01-30T17:16:40;6.85;;;3.00;;
31347;SDS011;21711;49.708;18.568;2023-01-30T17:19:08;6.13;;;3.40;;
31347;SDS011;21711;49.708;18.568;2023-01-30T17:21:40;10.83;;;4.50;;
31347;SDS011;21711;49.708;18.568;2023-01-30T17:24:12;5.30;;;3.20;;
31347;SDS011;21711;49.708;18.568;2023-01-30T17:26:44;8.45;;;3.17;;
31347;SDS011;21711;49.708;18.568;2023-01-30T17:29:15;9.00;;;4.17;;
31347;SDS011;21711;49.708;18.568;2023-01-30T17:32:04;8.23;;;3.33;;
31347;SDS011;21711;49.708;18.568;2023-01-30T17:34:40;6.20;;;3.25;;
31347;SDS011;21711;49.708;18.568;2023-01-30T17:37:15;6.30;;;3.23;;
31347;SDS011;21711;49.708;18.568;2023-01-30T17:39:47;7.50;;;3.60;;
31347;SDS011;21711;49.708;18.568;2023-01-30T17:42:15;8.98;;;4.03;;
31347;SDS011;21711;49.708;18.568;2023-01-30T17:44:47;7.63;;;3.57;;
31347;SDS011;21711;49.708;18.568;2023-01-30T17:47:15;8.33;;;3.13;;
31347;SDS011;21711;49.708;18.568;2023-01-30T17:49:42;5.90;;;3.40;;
31347;SDS011;21711;49.708;18.568;2023-01-30T17:52:10;7.00;;;3.03;;
31347;SDS011;21711;49.708;18.568;2023-01-30T17:54:39;6.10;;;2.53;;
31347;SDS011;21711;49.708;18.568;2023-01-30T17:57:06;7.07;;;3.42;;
31347;SDS011;21711;49.708;18.568;2023-01-30T17:59:41;8.77;;;3.25;;
31347;SDS011;21711;49.708;18.568;2023-01-30T18:02:08;7.38;;;3.05;;
31347;SDS011;21711;49.708;18.568;2023-01-30T18:04:36;8.15;;;3.47;;
31347;SDS011;21711;49.708;18.568;2023-01-30T18:07:05;4.88;;;2.58;;
31347;SDS011;21711;49.708;18.568;2023-01-30T18:09:37;5.63;;;3.00;;
31347;SDS011;21711;49.708;18.568;2023-01-30T18:12:05;7.00;;;2.75;;
31347;SDS011;21711;49.708;18.568;2023-01-30T18:14:32;5.90;;;2.50;;
31347;SDS011;21711;49.708;18.568;2023-01-30T18:17:00;4.60;;;2.40;;
31347;SDS011;21711;49.708;18.568;2023-01-30T18:19:28;6.50;;;3.43;;
31347;SDS011;21711;49.708;18.568;2023-01-30T18:21:57;5.47;;;2.50;;
31347;SDS011;21711;49.708;18.568;2023-01-30T18:24:25;4.38;;;2.50;;
31347;SDS011;21711;49.708;18.568;2023-01-30T18:26:53;7.03;;;2.93;;